Terminal Aerodrome Forecast
Issued by NWS Wilmington, OH

Current Version | Previous Version | Graphics & Text | Print | Product List | Glossary On
Versions: 1 2 3 4 5 6 7 8 9 10 11 12 13 14 15 16 17 18 19 20
000
FTUS41 KILN 172300
TAFILN
TAF
KILN 172329Z 1800/1824 VRB03KT P6SM SCT100
     FM180700 02003KT 4SM BR SCT150
      TEMPO 1808/1812 2SM BR
     FM181400 04007KT P6SM SCT040
     FM182300 04004KT P6SM FEW050=

USA.gov is the U.S. government's official web portal to all federal, state and local government web resources and services.